sensor_id;sensor_type;location;lat;lon;timestamp;pressure;altitude;pressure_sealevel;temperature;humidity
60725;BME280;59881;36.722;-4.462;2022-07-21T00:00:26;100417.31;;;20.32;97.98
60725;BME280;59881;36.722;-4.462;2022-07-21T00:02:53;101013.59;;;24.07;97.01
60725;BME280;59881;36.722;-4.462;2022-07-21T00:05:19;100396.56;;;20.34;95.64
60725;BME280;59881;36.722;-4.462;2022-07-21T00:07:46;100544.66;;;21.21;94.77
60725;BME280;59881;36.722;-4.462;2022-07-21T00:10:12;100566.22;;;21.28;93.71
60725;BME280;59881;36.722;-4.462;2022-07-21T00:12:38;100989.00;;;24.10;93.26
60725;BME280;59881;36.722;-4.462;2022-07-21T00:15:05;100313.13;;;19.99;92.37
60725;BME280;59881;36.722;-4.462;2022-07-21T00:17:31;100643.38;;;22.03;92.03
60725;BME280;59881;36.722;-4.462;2022-07-21T00:19:56;101110.38;;;24.76;91.76
60725;BME280;59881;36.722;-4.462;2022-07-21T00:22:22;100969.25;;;24.18;91.74
60725;BME280;59881;36.722;-4.462;2022-07-21T00:24:47;100934.34;;;23.95;91.45
60725;BME280;59881;36.722;-4.462;2022-07-21T00:27:13;101048.78;;;24.73;90.97
60725;BME280;59881;36.722;-4.462;2022-07-21T00:29:38;100380.13;;;20.61;90.56
60725;BME280;59881;36.722;-4.462;2022-07-21T00:32:04;101046.53;;;24.77;90.86
60725;BME280;59881;36.722;-4.462;2022-07-21T00:34:31;100764.66;;;22.30;90.46
60725;BME280;59881;36.722;-4.462;2022-07-21T00:36:57;100484.94;;;21.36;90.22
60725;BME280;59881;36.722;-4.462;2022-07-21T00:39:22;100345.84;;;20.49;90.40
60725;BME280;59881;36.722;-4.462;2022-07-21T00:41:48;101064.56;;;24.91;91.09
60725;BME280;59881;36.722;-4.462;2022-07-21T00:44:25;101064.19;;;24.94;91.12
60725;BME280;59881;36.722;-4.462;2022-07-21T00:46:51;100615.97;;;22.16;90.72
60725;BME280;59881;36.722;-4.462;2022-07-21T00:49:17;100927.09;;;24.10;90.69
60725;BME280;59881;36.722;-4.462;2022-07-21T00:51:43;100604.22;;;21.94;90.01
60725;BME280;59881;36.722;-4.462;2022-07-21T00:54:08;100433.03;;;20.82;90.46
60725;BME280;59881;36.722;-4.462;2022-07-21T00:56:34;100840.03;;;23.59;90.24
60725;BME280;59881;36.722;-4.462;2022-07-21T00:59:00;101215.19;;;25.01;91.20
60725;BME280;59881;36.722;-4.462;2022-07-21T01:01:26;100378.38;;;20.77;90.77
60725;BME280;59881;36.722;-4.462;2022-07-21T01:03:51;100151.50;;;19.31;90.51
60725;BME280;59881;36.722;-4.462;2022-07-21T01:06:17;101040.88;;;24.87;91.21
60725;BME280;59881;36.722;-4.462;2022-07-21T01:08:43;100795.03;;;23.38;90.63
60725;BME280;59881;36.722;-4.462;2022-07-21T01:11:11;100536.94;;;21.81;90.09
60725;BME280;59881;36.722;-4.462;2022-07-21T01:13:38;100903.84;;;23.65;90.43
60725;BME280;59881;36.722;-4.462;2022-07-21T01:16:07;100417.97;;;21.13;89.98
60725;BME280;59881;36.722;-4.462;2022-07-21T01:18:33;100390.94;;;20.99;89.44
60725;BME280;59881;36.722;-4.462;2022-07-21T01:21:03;100528.25;;;21.79;89.49
60725;BME280;59881;36.722;-4.462;2022-07-21T01:23:31;100521.69;;;21.81;89.45
60725;BME280;59881;36.722;-4.462;2022-07-21T01:25:57;101062.13;;;25.11;89.51
60725;BME280;59881;36.722;-4.462;2022-07-21T01:28:23;100601.94;;;22.29;88.69
60725;BME280;59881;36.722;-4.462;2022-07-21T01:30:48;101242.72;;;24.04;88.56
60725;BME280;59881;36.722;-4.462;2022-07-21T01:33:16;101204.34;;;25.09;89.23
60725;BME280;59881;36.722;-4.462;2022-07-21T01:35:41;101003.56;;;24.69;88.53
60725;BME280;59881;36.722;-4.462;2022-07-21T01:38:07;100389.38;;;21.05;88.49
60725;BME280;59881;36.722;-4.462;2022-07-21T01:40:59;100574.88;;;21.69;88.11
60725;BME280;59881;36.722;-4.462;2022-07-21T01:43:43;100997.59;;;24.73;88.71
60725;BME280;59881;36.722;-4.462;2022-07-21T01:46:12;100770.94;;;23.44;88.58
60725;BME280;59881;36.722;-4.462;2022-07-21T01:48:44;100937.16;;;24.31;88.85
60725;BME280;59881;36.722;-4.462;2022-07-21T01:51:10;100421.09;;;21.16;88.57
60725;BME280;59881;36.722;-4.462;2022-07-21T01:53:36;100355.03;;;20.85;88.11
60725;BME280;59881;36.722;-4.462;2022-07-21T01:56:02;101038.91;;;24.95;88.74
60725;BME280;59881;36.722;-4.462;2022-07-21T01:58:27;100605.59;;;21.90;88.87
60725;BME280;59881;36.722;-4.462;2022-07-21T02:00:54;100493.06;;;21.74;88.95
60725;BME280;59881;36.722;-4.462;2022-07-21T02:03:19;100387.78;;;20.96;88.56
60725;BME280;59881;36.722;-4.462;2022-07-21T02:05:45;100385.88;;;21.04;89.39
60725;BME280;59881;36.722;-4.462;2022-07-21T02:08:11;100074.91;;;18.26;88.99
60725;BME280;59881;36.722;-4.462;2022-07-21T02:10:36;101037.78;;;25.05;89.90
60725;BME280;59881;36.722;-4.462;2022-07-21T02:13:02;100423.56;;;21.26;89.59
60725;BME280;59881;36.722;-4.462;2022-07-21T02:15:29;100396.59;;;21.04;89.78
60725;BME280;59881;36.722;-4.462;2022-07-21T02:17:55;100433.63;;;21.24;89.90
60725;BME280;59881;36.722;-4.462;2022-07-21T02:20:21;101120.41;;;24.97;90.17
60725;BME280;59881;36.722;-4.462;2022-07-21T02:22:47;100853.72;;;23.87;90.29
60725;BME280;59881;36.722;-4.462;2022-07-21T02:25:13;100592.38;;;20.70;89.91
60725;BME280;59881;36.722;-4.462;2022-07-21T02:27:41;101035.66;;;25.00;90.57
60725;BME280;59881;36.722;-4.462;2022-07-21T02:30:07;100789.19;;;23.49;90.07
60725;BME280;59881;36.722;-4.462;2022-07-21T02:32:33;100395.19;;;20.85;89.68
60725;BME280;59881;36.722;-4.462;2022-07-21T02:34:58;100679.50;;;22.85;90.00
60725;BME280;59881;36.722;-4.462;2022-07-21T02:37:25;100306.91;;;20.46;89.85
60725;BME280;59881;36.722;-4.462;2022-07-21T02:39:52;101015.50;;;24.81;90.72
60725;BME280;59881;36.722;-4.462;2022-07-21T02:42:17;101018.94;;;24.75;90.69
60725;BME280;59881;36.722;-4.462;2022-07-21T02:44:43;100889.31;;;23.89;90.71
60725;BME280;59881;36.722;-4.462;2022-07-21T02:47:08;100869.16;;;23.70;91.53
60725;BME280;59881;36.722;-4.462;2022-07-21T02:49:34;100750.38;;;22.99;91.73
60725;BME280;59881;36.722;-4.462;2022-07-21T02:51:59;100889.22;;;23.82;91.99
60725;BME280;59881;36.722;-4.462;2022-07-21T02:54:25;100382.97;;;20.52;91.24
60725;BME280;59881;36.722;-4.462;2022-07-21T02:56:51;99924.53;;;17.88;90.93
60725;BME280;59881;36.722;-4.462;2022-07-21T02:59:16;100472.38;;;21.13;91.43
60725;BME280;59881;36.722;-4.462;2022-07-21T03:01:42;101018.22;;;24.51;91.57
60725;BME280;59881;36.722;-4.462;2022-07-21T03:04:07;100988.00;;;24.26;91.96
60725;BME280;59881;36.722;-4.462;2022-07-21T03:06:33;100323.41;;;20.18;91.61
60725;BME280;59881;36.722;-4.462;2022-07-21T03:08:59;100459.25;;;20.95;91.53
60725;BME280;59881;36.722;-4.462;2022-07-21T03:11:24;100349.84;;;20.21;91.64
60725;BME280;59881;36.722;-4.462;2022-07-21T03:13:50;100939.50;;;23.82;91.82
60725;BME280;59881;36.722;-4.462;2022-07-21T03:16:16;101099.56;;;24.24;92.22
60725;BME280;59881;36.722;-4.462;2022-07-21T03:18:42;100919.34;;;23.40;92.59
60725;BME280;59881;36.722;-4.462;2022-07-21T03:21:08;100980.38;;;23.08;92.79
60725;BME280;59881;36.722;-4.462;2022-07-21T03:23:33;100545.66;;;21.20;92.87
60725;BME280;59881;36.722;-4.462;2022-07-21T03:25:59;101016.31;;;24.07;93.16
60725;BME280;59881;36.722;-4.462;2022-07-21T03:28:25;101034.47;;;23.36;93.31
60725;BME280;59881;36.722;-4.462;2022-07-21T03:30:50;100397.19;;;20.04;93.24
60725;BME280;59881;36.722;-4.462;2022-07-21T03:33:16;101019.34;;;24.04;93.45
60725;BME280;59881;36.722;-4.462;2022-07-21T03:35:41;101017.84;;;24.02;92.39
60725;BME280;59881;36.722;-4.462;2022-07-21T03:38:07;100546.69;;;21.11;90.86
60725;BME280;59881;36.722;-4.462;2022-07-21T03:40:36;100972.00;;;23.80;90.06
60725;BME280;59881;36.722;-4.462;2022-07-21T03:43:04;100874.13;;;23.20;89.92
60725;BME280;59881;36.722;-4.462;2022-07-21T03:45:31;100239.44;;;19.32;89.37
60725;BME280;59881;36.722;-4.462;2022-07-21T03:47:58;101022.22;;;24.17;89.53
60725;BME280;59881;36.722;-4.462;2022-07-21T03:50:24;100887.84;;;23.33;89.34
60725;BME280;59881;36.722;-4.462;2022-07-21T03:52:50;100548.44;;;21.35;89.21
60725;BME280;59881;36.722;-4.462;2022-07-21T03:55:16;100414.53;;;20.64;88.84
60725;BME280;59881;36.722;-4.462;2022-07-21T03:57:49;100472.09;;;21.00;88.69
60725;BME280;59881;36.722;-4.462;2022-07-21T04:00:21;101025.72;;;24.41;88.35
60725;BME280;59881;36.722;-4.462;2022-07-21T04:02:48;100942.59;;;23.93;88.01
60725;BME280;59881;36.722;-4.462;2022-07-21T04:05:16;100435.22;;;20.79;87.06
60725;BME280;59881;36.722;-4.462;2022-07-21T04:07:43;100996.94;;;24.27;87.18
60725;BME280;59881;36.722;-4.462;2022-07-21T04:10:11;101020.69;;;24.38;86.64
60725;BME280;59881;36.722;-4.462;2022-07-21T04:12:38;101156.78;;;24.49;86.16
60725;BME280;59881;36.722;-4.462;2022-07-21T04:15:08;100272.72;;;19.85;85.83
60725;BME280;59881;36.722;-4.462;2022-07-21T04:17:34;100939.16;;;24.00;85.65
60725;BME280;59881;36.722;-4.462;2022-07-21T04:20:00;101159.50;;;24.64;85.47
60725;BME280;59881;36.722;-4.462;2022-07-21T04:22:25;100891.66;;;23.16;85.30
60725;BME280;59881;36.722;-4.462;2022-07-21T04:24:51;100389.41;;;20.74;84.25
60725;BME280;59881;36.722;-4.462;2022-07-21T04:27:17;100521.25;;;21.46;84.39
60725;BME280;59881;36.722;-4.462;2022-07-21T04:29:43;100316.56;;;20.24;83.98
60725;BME280;59881;36.722;-4.462;2022-07-21T04:32:08;100271.88;;;19.93;83.99
60725;BME280;59881;36.722;-4.462;2022-07-21T04:34:34;100230.22;;;19.59;83.91
60725;BME280;59881;36.722;-4.462;2022-07-21T04:37:00;100286.25;;;19.92;84.00
60725;BME280;59881;36.722;-4.462;2022-07-21T04:39:25;100890.31;;;23.58;84.55
60725;BME280;59881;36.722;-4.462;2022-07-21T04:41:51;100307.91;;;20.05;84.59
60725;BME280;59881;36.722;-4.462;2022-07-21T04:44:17;100920.50;;;23.83;84.60
60725;BME280;59881;36.722;-4.462;2022-07-21T04:46:42;101018.59;;;24.48;84.33
60725;BME280;59881;36.722;-4.462;2022-07-21T04:49:08;100315.25;;;20.12;84.00
60725;BME280;59881;36.722;-4.462;2022-07-21T04:51:33;100693.75;;;22.47;83.56
60725;BME280;59881;36.722;-4.462;2022-07-21T04:53:59;100450.69;;;21.00;82.50
60725;BME280;59881;36.722;-4.462;2022-07-21T04:56:24;100435.47;;;20.92;82.50
60725;BME280;59881;36.722;-4.462;2022-07-21T04:58:50;100356.44;;;20.42;82.19
60725;BME280;59881;36.722;-4.462;2022-07-21T05:01:15;100549.13;;;21.60;82.27
60725;BME280;59881;36.722;-4.462;2022-07-21T05:03:43;101063.25;;;24.72;82.62
60725;BME280;59881;36.722;-4.462;2022-07-21T05:06:09;100357.25;;;20.42;81.92
60725;BME280;59881;36.722;-4.462;2022-07-21T05:08:35;100374.28;;;20.50;81.66
60725;BME280;59881;36.722;-4.462;2022-07-21T05:11:01;101046.88;;;24.44;81.55
60725;BME280;59881;36.722;-4.462;2022-07-21T05:13:26;101065.78;;;24.74;81.41
60725;BME280;59881;36.722;-4.462;2022-07-21T05:15:52;100378.97;;;20.47;81.05
60725;BME280;59881;36.722;-4.462;2022-07-21T05:18:17;101065.50;;;24.69;81.23
60725;BME280;59881;36.722;-4.462;2022-07-21T05:20:43;101071.91;;;24.68;81.07
60725;BME280;59881;36.722;-4.462;2022-07-21T05:23:08;101072.09;;;24.66;81.52
60725;BME280;59881;36.722;-4.462;2022-07-21T05:25:34;100544.56;;;21.38;80.86
60725;BME280;59881;36.722;-4.462;2022-07-21T05:28:01;100563.19;;;21.31;81.19
60725;BME280;59881;36.722;-4.462;2022-07-21T05:30:27;100911.44;;;23.61;81.11
60725;BME280;59881;36.722;-4.462;2022-07-21T05:32:52;100962.28;;;23.94;81.36
60725;BME280;59881;36.722;-4.462;2022-07-21T05:35:18;100913.41;;;23.67;80.97
60725;BME280;59881;36.722;-4.462;2022-07-21T05:37:44;100843.13;;;23.32;81.02
60725;BME280;59881;36.722;-4.462;2022-07-21T05:40:11;100476.41;;;21.09;80.43
60725;BME280;59881;36.722;-4.462;2022-07-21T05:42:37;100400.66;;;20.61;80.27
60725;BME280;59881;36.722;-4.462;2022-07-21T05:45:05;100952.72;;;24.06;80.48
60725;BME280;59881;36.722;-4.462;2022-07-21T05:47:31;100438.59;;;21.04;80.16
60725;BME280;59881;36.722;-4.462;2022-07-21T05:49:57;100313.66;;;20.34;79.64
60725;BME280;59881;36.722;-4.462;2022-07-21T05:52:23;100347.09;;;20.69;78.86
60725;BME280;59881;36.722;-4.462;2022-07-21T05:54:49;100199.69;;;20.01;78.50
60725;BME280;59881;36.722;-4.462;2022-07-21T05:57:15;100942.91;;;24.13;77.29
60725;BME280;59881;36.722;-4.462;2022-07-21T05:59:40;101142.28;;;25.69;76.22
60725;BME280;59881;36.722;-4.462;2022-07-21T06:02:06;101098.22;;;26.05;75.33
60725;BME280;59881;36.722;-4.462;2022-07-21T06:04:32;101094.81;;;26.17;74.04
60725;BME280;59881;36.722;-4.462;2022-07-21T06:06:57;101017.75;;;25.72;73.17
60725;BME280;59881;36.722;-4.462;2022-07-21T06:09:23;100978.28;;;25.43;72.82
60725;BME280;59881;36.722;-4.462;2022-07-21T06:11:48;101035.81;;;25.71;72.55
60725;BME280;59881;36.722;-4.462;2022-07-21T06:14:14;101012.38;;;25.50;72.63
60725;BME280;59881;36.722;-4.462;2022-07-21T06:16:40;101105.88;;;26.01;72.94
60725;BME280;59881;36.722;-4.462;2022-07-21T06:19:05;100428.75;;;20.01;72.68
60725;BME280;59881;36.722;-4.462;2022-07-21T06:21:34;99410.56;;;15.64;72.52
60725;BME280;59881;36.722;-4.462;2022-07-21T06:24:00;101100.69;;;26.28;72.60
60725;BME280;59881;36.722;-4.462;2022-07-21T06:26:26;100474.53;;;22.40;72.08
60725;BME280;59881;36.722;-4.462;2022-07-21T06:28:52;100588.09;;;23.08;72.05
60725;BME280;59881;36.722;-4.462;2022-07-21T06:31:17;100625.97;;;23.13;71.70
60725;BME280;59881;36.722;-4.462;2022-07-21T06:33:43;101100.66;;;26.21;71.77
60725;BME280;59881;36.722;-4.462;2022-07-21T06:36:09;101166.56;;;26.76;71.31
60725;BME280;59881;36.722;-4.462;2022-07-21T06:38:34;100479.06;;;23.35;69.69
60725;BME280;59881;36.722;-4.462;2022-07-21T06:41:00;100438.09;;;24.04;67.63
60725;BME280;59881;36.722;-4.462;2022-07-21T06:43:25;100484.75;;;25.36;63.25
60725;BME280;59881;36.722;-4.462;2022-07-21T06:45:51;100484.19;;;26.14;60.88
60725;BME280;59881;36.722;-4.462;2022-07-21T06:48:17;100735.59;;;28.67;57.78
60725;BME280;59881;36.722;-4.462;2022-07-21T06:50:43;101094.56;;;31.80;54.86
60725;BME280;59881;36.722;-4.462;2022-07-21T06:53:09;100917.84;;;30.76;53.25
60725;BME280;59881;36.722;-4.462;2022-07-21T06:55:35;101007.28;;;31.02;53.73
60725;BME280;59881;36.722;-4.462;2022-07-21T06:58:11;100942.41;;;31.41;51.88
60725;BME280;59881;36.722;-4.462;2022-07-21T07:00:37;101097.84;;;32.47;52.32
60725;BME280;59881;36.722;-4.462;2022-07-21T07:03:03;100618.13;;;29.66;52.24
60725;BME280;59881;36.722;-4.462;2022-07-21T07:05:29;100636.31;;;30.73;49.99
60725;BME280;59881;36.722;-4.462;2022-07-21T07:07:56;100868.41;;;33.01;48.15
60725;BME280;59881;36.722;-4.462;2022-07-21T07:10:21;100341.38;;;29.71;46.21
60725;BME280;59881;36.722;-4.462;2022-07-21T07:12:47;101104.16;;;35.32;45.85
60725;BME280;59881;36.722;-4.462;2022-07-21T07:15:12;101103.16;;;35.43;44.93
60725;BME280;59881;36.722;-4.462;2022-07-21T07:17:38;100583.97;;;31.30;45.78
60725;BME280;59881;36.722;-4.462;2022-07-21T07:20:05;101096.34;;;34.40;46.95
60725;BME280;59881;36.722;-4.462;2022-07-21T07:22:34;101106.31;;;35.57;44.35
60725;BME280;59881;36.722;-4.462;2022-07-21T07:24:59;100425.28;;;31.75;43.33
60725;BME280;59881;36.722;-4.462;2022-07-21T07:27:25;100503.28;;;31.98;43.25
60725;BME280;59881;36.722;-4.462;2022-07-21T07:29:51;101005.91;;;33.91;45.60
60725;BME280;59881;36.722;-4.462;2022-07-21T07:32:17;100525.88;;;30.31;47.76
60725;BME280;59881;36.722;-4.462;2022-07-21T07:34:42;101118.78;;;33.46;47.94
60725;BME280;59881;36.722;-4.462;2022-07-21T07:37:08;100585.44;;;29.42;50.12
60725;BME280;59881;36.722;-4.462;2022-07-21T07:39:33;101142.28;;;32.83;50.75
60725;BME280;59881;36.722;-4.462;2022-07-21T07:41:59;101177.66;;;33.02;50.03
60725;BME280;59881;36.722;-4.462;2022-07-21T07:44:25;101134.00;;;33.42;50.38
60725;BME280;59881;36.722;-4.462;2022-07-21T07:46:51;101071.47;;;33.29;49.29
60725;BME280;59881;36.722;-4.462;2022-07-21T07:49:16;101127.63;;;34.28;47.88
60725;BME280;59881;36.722;-4.462;2022-07-21T07:51:42;100666.63;;;31.00;48.27
60725;BME280;59881;36.722;-4.462;2022-07-21T07:54:08;100539.84;;;29.81;49.11
60725;BME280;59881;36.722;-4.462;2022-07-21T07:56:34;101055.50;;;34.73;46.46
60725;BME280;59881;36.722;-4.462;2022-07-21T07:58:59;100753.53;;;35.21;42.38
60725;BME280;59881;36.722;-4.462;2022-07-21T08:01:25;101126.09;;;38.98;39.16
60725;BME280;59881;36.722;-4.462;2022-07-21T08:03:50;101006.94;;;37.66;38.90
60725;BME280;59881;36.722;-4.462;2022-07-21T08:06:16;100988.16;;;38.19;38.62
60725;BME280;59881;36.722;-4.462;2022-07-21T08:08:42;101105.88;;;40.02;37.02
60725;BME280;59881;36.722;-4.462;2022-07-21T08:11:07;101027.13;;;39.12;35.69
60725;BME280;59881;36.722;-4.462;2022-07-21T08:13:33;101102.03;;;37.46;39.78
60725;BME280;59881;36.722;-4.462;2022-07-21T08:15:59;100893.03;;;35.76;41.55
60725;BME280;59881;36.722;-4.462;2022-07-21T08:18:25;100766.59;;;35.62;40.15
60725;BME280;59881;36.722;-4.462;2022-07-21T08:20:51;101194.00;;;37.28;41.16
60725;BME280;59881;36.722;-4.462;2022-07-21T08:23:17;100740.38;;;34.54;41.53
60725;BME280;59881;36.722;-4.462;2022-07-21T08:25:42;100822.16;;;34.77;41.44
60725;BME280;59881;36.722;-4.462;2022-07-21T08:28:09;101239.63;;;38.44;39.56
60725;BME280;59881;36.722;-4.462;2022-07-21T08:30:35;100585.56;;;35.94;38.10
60725;BME280;59881;36.722;-4.462;2022-07-21T08:33:01;101169.91;;;39.60;37.19
60725;BME280;59881;36.722;-4.462;2022-07-21T08:35:27;100994.13;;;38.47;36.97
60725;BME280;59881;36.722;-4.462;2022-07-21T08:37:59;100589.66;;;35.66;38.05
60725;BME280;59881;36.722;-4.462;2022-07-21T08:40:26;100632.22;;;34.68;39.92
60725;BME280;59881;36.722;-4.462;2022-07-21T08:42:53;100726.88;;;34.69;41.21
60725;BME280;59881;36.722;-4.462;2022-07-21T08:45:19;101191.03;;;37.45;41.07
60725;BME280;59881;36.722;-4.462;2022-07-21T08:47:45;100686.22;;;34.83;40.70
60725;BME280;59881;36.722;-4.462;2022-07-21T08:50:11;101103.88;;;37.31;40.99
60725;BME280;59881;36.722;-4.462;2022-07-21T08:52:36;101143.84;;;37.69;40.71
60725;BME280;59881;36.722;-4.462;2022-07-21T08:55:02;100735.03;;;35.44;38.95
60725;BME280;59881;36.722;-4.462;2022-07-21T08:57:28;100706.00;;;36.62;37.77
60725;BME280;59881;36.722;-4.462;2022-07-21T08:59:54;100708.69;;;36.93;36.85
60725;BME280;59881;36.722;-4.462;2022-07-21T09:02:33;100973.38;;;38.70;36.40
60725;BME280;59881;36.722;-4.462;2022-07-21T09:05:00;101060.78;;;39.88;35.19
60725;BME280;59881;36.722;-4.462;2022-07-21T09:07:26;100607.06;;;37.14;35.57
60725;BME280;59881;36.722;-4.462;2022-07-21T09:10:01;101170.22;;;40.32;35.18
60725;BME280;59881;36.722;-4.462;2022-07-21T09:12:27;100628.88;;;38.28;34.03
60725;BME280;59881;36.722;-4.462;2022-07-21T09:15:15;101050.94;;;41.21;33.36
60725;BME280;59881;36.722;-4.462;2022-07-21T09:17:42;100997.28;;;41.41;32.82
60725;BME280;59881;36.722;-4.462;2022-07-21T09:20:27;101131.19;;;42.20;32.70
60725;BME280;59881;36.722;-4.462;2022-07-21T09:23:13;100743.28;;;38.98;32.70
60725;BME280;59881;36.722;-4.462;2022-07-21T09:25:43;101137.97;;;41.81;32.71
60725;BME280;59881;36.722;-4.462;2022-07-21T09:28:20;100690.84;;;39.08;31.85
60725;BME280;59881;36.722;-4.462;2022-07-21T09:31:07;101140.75;;;41.62;32.94
60725;BME280;59881;36.722;-4.462;2022-07-21T09:33:38;101151.16;;;41.84;32.46
60725;BME280;59881;36.722;-4.462;2022-07-21T09:38:36;101172.03;;;41.19;33.27
60725;BME280;59881;36.722;-4.462;2022-07-21T09:41:23;101103.84;;;41.09;32.69
60725;BME280;59881;36.722;-4.462;2022-07-21T09:43:51;101160.78;;;43.35;30.17
60725;BME280;59881;36.722;-4.462;2022-07-21T09:46:25;100800.09;;;42.24;29.26
60725;BME280;59881;36.722;-4.462;2022-07-21T09:48:55;101142.50;;;45.91;27.42
60725;BME280;59881;36.722;-4.462;2022-07-21T09:51:31;101235.56;;;47.02;25.44
60725;BME280;59881;36.722;-4.462;2022-07-21T09:54:09;101183.81;;;47.43;25.11
60725;BME280;59881;36.722;-4.462;2022-07-21T09:56:37;101215.53;;;46.70;25.38
60725;BME280;59881;36.722;-4.462;2022-07-21T09:59:05;100674.66;;;43.83;25.88
60725;BME280;59881;36.722;-4.462;2022-07-21T10:01:31;101053.59;;;46.33;25.33
60725;BME280;59881;36.722;-4.462;2022-07-21T10:03:58;101077.63;;;46.17;25.62
60725;BME280;59881;36.722;-4.462;2022-07-21T10:06:30;101047.66;;;45.06;25.74
60725;BME280;59881;36.722;-4.462;2022-07-21T10:08:56;101190.34;;;45.67;26.48
60725;BME280;59881;36.722;-4.462;2022-07-21T10:11:24;100715.50;;;42.85;27.34
60725;BME280;59881;36.722;-4.462;2022-07-21T10:13:50;100660.25;;;42.89;26.64
60725;BME280;59881;36.722;-4.462;2022-07-21T10:16:16;101318.22;;;45.98;26.20
60725;BME280;59881;36.722;-4.462;2022-07-21T10:24:00;101180.38;;;45.83;26.72
60725;BME280;59881;36.722;-4.462;2022-07-21T10:26:25;100893.84;;;43.92;26.90
60725;BME280;59881;36.722;-4.462;2022-07-21T10:28:51;101114.47;;;44.34;27.51
60725;BME280;59881;36.722;-4.462;2022-07-21T10:31:20;101169.13;;;44.88;28.02
60725;BME280;59881;36.722;-4.462;2022-07-21T10:41:54;101187.81;;;46.27;26.16
60725;BME280;59881;36.722;-4.462;2022-07-21T10:47:18;101161.59;;;43.72;29.31
60725;BME280;59881;36.722;-4.462;2022-07-21T10:50:01;101248.81;;;41.65;31.99
60725;BME280;59881;36.722;-4.462;2022-07-21T10:57:39;101192.94;;;34.97;43.43
60725;BME280;59881;36.722;-4.462;2022-07-21T11:00:33;101183.28;;;34.38;44.80
60725;BME280;59881;36.722;-4.462;2022-07-21T11:03:06;101355.13;;;33.89;45.63
60725;BME280;59881;36.722;-4.462;2022-07-21T11:08:37;100568.16;;;29.55;47.23
60725;BME280;59881;36.722;-4.462;2022-07-21T11:11:27;101174.91;;;33.13;47.07
60725;BME280;59881;36.722;-4.462;2022-07-21T11:14:16;101110.31;;;32.67;46.93
60725;BME280;59881;36.722;-4.462;2022-07-21T11:21:52;100521.13;;;28.39;49.72
60725;BME280;59881;36.722;-4.462;2022-07-21T11:24:19;100976.97;;;31.29;50.01
60725;BME280;59881;36.722;-4.462;2022-07-21T11:29:25;100545.41;;;28.27;51.19
60725;BME280;59881;36.722;-4.462;2022-07-21T11:31:51;101194.19;;;32.29;51.80
60725;BME280;59881;36.722;-4.462;2022-07-21T11:34:18;100518.00;;;27.92;52.16
60725;BME280;59881;36.722;-4.462;2022-07-21T11:36:43;101174.78;;;31.65;53.43
60725;BME280;59881;36.722;-4.462;2022-07-21T11:39:12;101143.25;;;30.84;53.28
60725;BME280;59881;36.722;-4.462;2022-07-21T11:41:39;100439.50;;;26.96;52.95
60725;BME280;59881;36.722;-4.462;2022-07-21T11:44:07;101100.75;;;31.08;53.78
60725;BME280;59881;36.722;-4.462;2022-07-21T11:46:52;101169.38;;;31.47;53.34
60725;BME280;59881;36.722;-4.462;2022-07-21T11:49:19;100961.44;;;29.70;53.32
60725;BME280;59881;36.722;-4.462;2022-07-21T11:51:47;100939.03;;;29.18;55.52
60725;BME280;59881;36.722;-4.462;2022-07-21T11:54:20;101186.09;;;29.81;55.17
60725;BME280;59881;36.722;-4.462;2022-07-21T11:56:48;100662.56;;;27.32;56.13
60725;BME280;59881;36.722;-4.462;2022-07-21T11:59:14;100603.16;;;26.99;56.03
60725;BME280;59881;36.722;-4.462;2022-07-21T12:02:01;101205.06;;;30.51;55.98
60725;BME280;59881;36.722;-4.462;2022-07-21T12:06:55;100415.72;;;25.68;57.48
60725;BME280;59881;36.722;-4.462;2022-07-21T12:09:21;100427.94;;;25.84;57.56
60725;BME280;59881;36.722;-4.462;2022-07-21T12:11:47;100491.47;;;26.13;57.56
60725;BME280;59881;36.722;-4.462;2022-07-21T12:14:13;100605.06;;;26.65;58.36
60725;BME280;59881;36.722;-4.462;2022-07-21T12:16:53;101016.78;;;28.92;58.98
60725;BME280;59881;36.722;-4.462;2022-07-21T12:19:19;100542.16;;;25.98;58.86
60725;BME280;59881;36.722;-4.462;2022-07-21T12:21:52;101159.66;;;29.95;58.75
60725;BME280;59881;36.722;-4.462;2022-07-21T12:24:19;101058.50;;;29.43;59.30
60725;BME280;59881;36.722;-4.462;2022-07-21T12:26:45;101147.44;;;29.41;58.39
60725;BME280;59881;36.722;-4.462;2022-07-21T12:29:29;101143.91;;;30.10;58.21
60725;BME280;59881;36.722;-4.462;2022-07-21T12:31:55;101030.94;;;29.39;57.52
60725;BME280;59881;36.722;-4.462;2022-07-21T12:34:21;101033.28;;;29.29;58.00
60725;BME280;59881;36.722;-4.462;2022-07-21T12:36:49;100954.53;;;28.65;58.24
60725;BME280;59881;36.722;-4.462;2022-07-21T12:39:21;101179.66;;;29.69;58.77
60725;BME280;59881;36.722;-4.462;2022-07-21T12:42:07;101085.84;;;29.41;58.61
60725;BME280;59881;36.722;-4.462;2022-07-21T12:44:33;100504.31;;;25.71;58.38
60725;BME280;59881;36.722;-4.462;2022-07-21T12:47:20;101069.81;;;28.75;58.45
60725;BME280;59881;36.722;-4.462;2022-07-21T12:49:56;101130.69;;;29.44;58.54
60725;BME280;59881;36.722;-4.462;2022-07-21T12:52:23;101095.72;;;29.22;58.21
60725;BME280;59881;36.722;-4.462;2022-07-21T12:54:49;100377.47;;;25.05;58.41
60725;BME280;59881;36.722;-4.462;2022-07-21T12:57:14;100997.75;;;28.99;58.05
60725;BME280;59881;36.722;-4.462;2022-07-21T12:59:40;101119.69;;;29.77;58.10
60725;BME280;59881;36.722;-4.462;2022-07-21T13:02:06;100728.94;;;27.35;58.19
60725;BME280;59881;36.722;-4.462;2022-07-21T13:04:31;100484.38;;;25.79;56.91
60725;BME280;59881;36.722;-4.462;2022-07-21T13:06:57;101128.13;;;29.56;57.33
60725;BME280;59881;36.722;-4.462;2022-07-21T13:09:22;101122.19;;;29.40;58.03
60725;BME280;59881;36.722;-4.462;2022-07-21T13:11:48;100493.31;;;25.59;58.30
60725;BME280;59881;36.722;-4.462;2022-07-21T13:14:14;100400.88;;;24.97;58.25
60725;BME280;59881;36.722;-4.462;2022-07-21T13:16:39;101092.78;;;29.30;58.61
60725;BME280;59881;36.722;-4.462;2022-07-21T13:19:05;100465.72;;;25.51;57.63